createdAt,value
2022-10-19T00:02:16.693Z,6.82
2022-10-19T00:04:44.367Z,6.92
2022-10-19T00:07:12.056Z,7.07
2022-10-19T00:09:39.683Z,7.23
2022-10-19T00:12:10.035Z,7.30
2022-10-19T00:14:37.503Z,7.27
2022-10-19T00:17:05.269Z,7.39
2022-10-19T00:19:32.658Z,7.17
2022-10-19T00:22:00.060Z,7.26
2022-10-19T00:24:29.834Z,6.97
2022-10-19T00:26:57.933Z,6.98
2022-10-19T00:29:25.460Z,6.86
2022-10-19T00:31:52.819Z,6.78
2022-10-19T00:34:20.259Z,6.89
2022-10-19T00:36:47.661Z,6.95
2022-10-19T00:39:16.683Z,6.82
2022-10-19T00:41:46.199Z,6.71
2022-10-19T00:44:13.756Z,6.99
2022-10-19T00:46:46.519Z,6.80
2022-10-19T00:49:26.422Z,6.63
2022-10-19T00:51:58.220Z,6.44
2022-10-19T00:54:26.036Z,6.51
2022-10-19T00:56:57.726Z,6.57
2022-10-19T00:59:27.688Z,6.45
2022-10-19T01:01:55.470Z,6.42
2022-10-19T01:04:26.202Z,6.41
2022-10-19T01:06:54.665Z,6.40
2022-10-19T01:09:22.179Z,6.40
2022-10-19T01:11:57.734Z,6.32
2022-10-19T01:14:37.879Z,6.40
2022-10-19T01:17:20.411Z,6.41
2022-10-19T01:20:15.889Z,6.29
2022-10-19T01:22:45.729Z,6.15
2022-10-19T01:25:23.786Z,6.17
2022-10-19T01:27:59.908Z,6.21
2022-10-19T01:30:58.942Z,6.24
2022-10-19T01:33:42.753Z,6.14
2022-10-19T01:36:24.036Z,6.16
2022-10-19T01:39:06.784Z,6.19
2022-10-19T01:42:02.263Z,5.95
2022-10-19T01:44:40.377Z,5.95
2022-10-19T01:47:18.168Z,6.03
2022-10-19T01:49:54.500Z,5.90
2022-10-19T01:52:25.685Z,5.90
2022-10-19T01:54:57.484Z,5.83
2022-10-19T01:57:37.629Z,5.95
2022-10-19T02:00:08.055Z,5.69
2022-10-19T02:02:42.893Z,5.67
2022-10-19T02:05:12.661Z,5.58
2022-10-19T02:07:46.513Z,5.67
2022-10-19T02:12:46.476Z,5.51
2022-10-19T02:15:19.875Z,5.55
2022-10-19T02:17:51.463Z,5.56
2022-10-19T02:20:20.217Z,5.42
2022-10-19T02:22:48.296Z,5.51
2022-10-19T02:25:16.317Z,5.52
2022-10-19T02:27:43.966Z,5.45
2022-10-19T02:30:14.669Z,5.28
2022-10-19T02:32:43.532Z,5.31
2022-10-19T02:35:14.512Z,5.35
2022-10-19T02:37:45.011Z,5.42
2022-10-19T02:40:12.993Z,5.47
2022-10-19T02:42:58.775Z,5.29
2022-10-19T02:45:31.047Z,5.30
2022-10-19T02:48:07.506Z,5.35
2022-10-19T02:50:35.359Z,5.33
2022-10-19T02:53:03.062Z,5.37
2022-10-19T02:55:31.360Z,5.41
2022-10-19T02:57:58.885Z,5.30
2022-10-19T03:00:26.222Z,5.37
2022-10-19T03:02:54.672Z,5.43
2022-10-19T03:05:25.033Z,5.42
2022-10-19T03:07:52.436Z,5.26
2022-10-19T03:10:19.883Z,5.22
2022-10-19T03:12:47.357Z,5.50
2022-10-19T03:15:19.355Z,5.57
2022-10-19T03:17:46.807Z,5.61
2022-10-19T03:20:14.201Z,5.53
2022-10-19T03:22:41.654Z,5.56
2022-10-19T03:25:09.307Z,5.53
2022-10-19T03:27:36.969Z,5.37
2022-10-19T03:30:08.013Z,5.47
2022-10-19T03:32:38.704Z,5.25
2022-10-19T03:35:06.746Z,5.18
2022-10-19T03:37:34.306Z,5.58
2022-10-19T03:40:02.768Z,9.93
2022-10-19T03:42:30.145Z,9.94
2022-10-19T03:44:57.641Z,11.48
2022-10-19T03:47:25.177Z,7.39
2022-10-19T03:49:52.696Z,6.02
2022-10-19T03:52:20.863Z,5.57
2022-10-19T03:54:51.747Z,4.88
2022-10-19T03:57:19.883Z,4.59
2022-10-19T03:59:47.275Z,4.44
2022-10-19T04:02:14.941Z,6.62
2022-10-19T04:04:42.382Z,5.39
2022-10-19T04:07:09.794Z,5.04
2022-10-19T04:09:37.214Z,4.73
2022-10-19T04:12:18.138Z,4.58
2022-10-19T04:14:56.977Z,4.53
2022-10-19T04:17:25.815Z,4.41
2022-10-19T04:19:53.904Z,4.57
2022-10-19T04:22:24.678Z,4.56
2022-10-19T04:24:53.838Z,4.53
2022-10-19T04:27:21.792Z,4.58
2022-10-19T04:29:53.463Z,4.44
2022-10-19T04:32:24.202Z,4.57
2022-10-19T04:34:55.354Z,4.23
2022-10-19T04:37:31.934Z,4.16
2022-10-19T04:40:03.976Z,4.15
2022-10-19T04:42:32.423Z,4.28
2022-10-19T04:45:03.292Z,4.31
2022-10-19T04:47:31.844Z,4.18
2022-10-19T04:50:06.074Z,4.25
2022-10-19T04:52:34.585Z,4.23
2022-10-19T04:55:07.038Z,4.16
2022-10-19T04:57:44.339Z,4.21
2022-10-19T05:00:16.489Z,4.16
2022-10-19T05:02:48.597Z,4.36
2022-10-19T05:05:37.287Z,4.42
2022-10-19T05:08:07.868Z,4.60
2022-10-19T05:10:37.664Z,4.69
2022-10-19T05:13:05.424Z,4.47
2022-10-19T05:15:33.507Z,4.74
2022-10-19T05:18:01.018Z,4.59
2022-10-19T05:20:28.656Z,4.48
2022-10-19T05:22:56.127Z,4.60
2022-10-19T05:25:24.049Z,4.57
2022-10-19T05:27:53.098Z,4.50
2022-10-19T05:30:24.112Z,4.42
2022-10-19T05:32:57.058Z,4.35
2022-10-19T05:35:32.313Z,4.25
2022-10-19T05:37:59.889Z,4.34
2022-10-19T05:40:30.515Z,4.45
2022-10-19T05:43:00.254Z,4.81
2022-10-19T05:45:27.706Z,4.69
2022-10-19T05:47:59.045Z,4.60
2022-10-19T05:50:26.594Z,4.57
2022-10-19T05:52:54.006Z,4.65
2022-10-19T05:55:21.447Z,4.78
2022-10-19T05:57:48.731Z,4.81
2022-10-19T06:00:16.584Z,4.85
2022-10-19T06:02:46.804Z,4.88
2022-10-19T06:05:17.724Z,5.04
2022-10-19T06:07:45.298Z,5.19
2022-10-19T06:10:12.838Z,5.30
2022-10-19T06:12:43.730Z,5.34
2022-10-19T06:15:14.033Z,5.31
2022-10-19T06:17:44.454Z,5.14
2022-10-19T06:20:14.929Z,5.27
2022-10-19T06:22:45.242Z,5.23
2022-10-19T06:25:20.296Z,5.47
2022-10-19T06:27:50.553Z,5.48
2022-10-19T06:30:21.087Z,5.75
2022-10-19T06:32:49.254Z,5.95
2022-10-19T06:35:17.352Z,5.93
2022-10-19T06:37:47.532Z,5.93
2022-10-19T06:40:18.146Z,6.14
2022-10-19T06:42:45.847Z,6.19
2022-10-19T06:45:19.564Z,6.45
2022-10-19T06:50:14.590Z,6.37
2022-10-19T06:52:41.982Z,6.41
2022-10-19T06:55:12.302Z,6.71
2022-10-19T06:57:40.084Z,7.03
2022-10-19T07:00:11.582Z,6.94
2022-10-19T07:02:42.782Z,7.05
2022-10-19T07:05:12.981Z,7.29
2022-10-19T07:07:40.490Z,7.32
2022-10-19T07:10:08.474Z,7.44
2022-10-19T07:12:39.221Z,7.25
2022-10-19T07:15:07.042Z,7.49
2022-10-19T07:17:38.333Z,7.46
2022-10-19T07:20:09.275Z,7.64
2022-10-19T07:22:40.236Z,7.82
2022-10-19T07:25:11.814Z,7.97
2022-10-19T07:27:43.636Z,8.04
2022-10-19T07:30:14.353Z,8.07
2022-10-19T07:32:47.080Z,8.02
2022-10-19T07:35:17.564Z,8.15
2022-10-19T07:37:45.066Z,8.32
2022-10-19T07:40:13.236Z,8.52
2022-10-19T07:42:44.079Z,8.61
2022-10-19T07:45:11.631Z,8.57
2022-10-19T07:47:45.695Z,8.72
2022-10-19T07:50:20.633Z,8.81
2022-10-19T07:52:55.994Z,8.94
2022-10-19T07:55:23.735Z,9.03
2022-10-19T07:57:57.083Z,9.14
2022-10-19T08:00:27.596Z,9.26
2022-10-19T08:03:31.665Z,9.43
2022-10-19T08:05:59.968Z,9.55
2022-10-19T08:08:34.077Z,9.66
2022-10-19T08:11:19.794Z,9.86
2022-10-19T08:13:50.793Z,9.96
2022-10-19T08:16:27.549Z,10.10
2022-10-19T08:19:04.297Z,10.32
2022-10-19T08:21:34.986Z,10.53
2022-10-19T08:24:03.471Z,10.72
2022-10-19T08:26:34.140Z,10.78
2022-10-19T08:29:13.461Z,10.83
2022-10-19T08:31:41.745Z,11.05
2022-10-19T08:34:12.127Z,11.06
2022-10-19T08:36:39.844Z,11.32
2022-10-19T08:39:10.853Z,11.49
2022-10-19T08:41:52.177Z,11.78
2022-10-19T08:44:50.375Z,12.03
2022-10-19T08:47:37.287Z,12.32
2022-10-19T08:50:21.601Z,12.48
2022-10-19T08:53:02.566Z,12.63
2022-10-19T08:55:59.701Z,12.78
2022-10-19T08:59:03.959Z,13.10
2022-10-19T09:01:37.800Z,13.42
2022-10-19T09:04:08.287Z,13.58
2022-10-19T09:06:44.048Z,13.73
2022-10-19T09:09:13.865Z,13.86
2022-10-19T09:11:50.691Z,14.27
2022-10-19T09:14:25.789Z,14.30
2022-10-19T09:17:10.810Z,14.58
2022-10-19T09:19:38.376Z,14.69
2022-10-19T09:22:35.799Z,14.77
2022-10-19T09:25:13.686Z,14.92
2022-10-19T09:27:44.151Z,14.95
2022-10-19T09:30:21.262Z,15.14
2022-10-19T09:32:55.952Z,15.20
2022-10-19T09:35:28.478Z,15.05
2022-10-19T09:37:57.110Z,15.15
2022-10-19T09:40:28.269Z,15.17
2022-10-19T09:42:56.875Z,15.05
2022-10-19T09:45:45.113Z,15.13
2022-10-19T09:48:54.120Z,15.22
2022-10-19T09:51:24.936Z,15.20
2022-10-19T09:53:57.721Z,15.30
2022-10-19T09:56:28.169Z,15.31
2022-10-19T09:58:58.491Z,15.33
2022-10-19T10:01:41.876Z,15.44
2022-10-19T10:04:20.574Z,15.50
2022-10-19T10:06:49.842Z,16.99
2022-10-19T10:09:22.304Z,17.97
2022-10-19T10:14:33.514Z,18.48
2022-10-19T10:17:05.653Z,18.60
2022-10-19T10:19:36.599Z,18.72
2022-10-19T10:22:04.463Z,19.03
2022-10-19T10:24:33.752Z,18.67
2022-10-19T10:27:04.213Z,19.11
2022-10-19T10:29:35.683Z,19.06
2022-10-19T10:32:06.163Z,19.21
2022-10-19T10:34:58.406Z,19.04
2022-10-19T10:37:43.224Z,18.02
2022-10-19T10:40:23.641Z,17.65
2022-10-19T10:42:54.296Z,17.52
2022-10-19T10:45:32.591Z,17.41
2022-10-19T10:48:12.820Z,17.38
2022-10-19T10:50:43.874Z,17.50
2022-10-19T10:53:35.894Z,17.44
2022-10-19T10:56:04.789Z,17.40
2022-10-19T10:58:53.871Z,17.47
2022-10-19T11:01:28.923Z,17.56
2022-10-19T11:04:26.143Z,17.62
2022-10-19T11:07:08.436Z,17.72
2022-10-19T11:09:42.510Z,17.79
2022-10-19T11:12:16.253Z,17.88
2022-10-19T11:15:03.087Z,18.01
2022-10-19T11:17:36.714Z,18.67
2022-10-19T11:20:07.551Z,19.15
2022-10-19T11:22:40.736Z,19.38
2022-10-19T11:25:38.254Z,19.70
2022-10-19T11:28:37.081Z,20.10
2022-10-19T11:31:31.928Z,19.67
2022-10-19T11:34:08.882Z,18.76
2022-10-19T11:36:50.434Z,18.65
2022-10-19T11:39:51.713Z,18.66
2022-10-19T11:43:01.113Z,18.92
2022-10-19T11:45:54.446Z,18.75
2022-10-19T11:48:32.680Z,18.74
2022-10-19T11:51:21.009Z,18.53
2022-10-19T11:53:52.289Z,18.73
2022-10-19T11:56:44.656Z,18.76
2022-10-19T12:00:13.616Z,18.61
2022-10-19T12:03:19.836Z,18.81
2022-10-19T12:06:14.081Z,18.96
2022-10-19T12:09:18.335Z,18.97
2022-10-19T12:11:51.915Z,18.92
2022-10-19T12:14:26.061Z,18.95
2022-10-19T12:17:01.138Z,19.05
2022-10-19T12:19:39.406Z,19.03
2022-10-19T12:22:15.252Z,18.92
2022-10-19T12:24:42.773Z,19.04
2022-10-19T12:27:18.600Z,18.93
2022-10-19T12:29:49.593Z,18.80
2022-10-19T12:32:19.859Z,18.69
2022-10-19T12:34:53.755Z,18.69
2022-10-19T12:37:44.651Z,18.69
2022-10-19T12:40:27.930Z,18.86
2022-10-19T12:43:01.539Z,18.84
2022-10-19T12:46:01.238Z,18.93
2022-10-19T12:48:32.022Z,18.86
2022-10-19T12:51:07.977Z,18.82
2022-10-19T12:53:38.180Z,18.81
2022-10-19T12:56:25.268Z,18.81
2022-10-19T12:58:59.041Z,18.83
2022-10-19T13:01:43.849Z,18.90
2022-10-19T13:04:21.716Z,18.89
2022-10-19T13:06:59.473Z,18.93
2022-10-19T13:09:35.839Z,18.93
2022-10-19T13:12:19.496Z,18.87
2022-10-19T13:14:55.784Z,18.95
2022-10-19T13:17:38.778Z,19.05
2022-10-19T13:20:13.823Z,19.04
2022-10-19T13:22:48.799Z,19.01
2022-10-19T13:25:16.294Z,19.11
2022-10-19T13:27:48.932Z,19.07
2022-10-19T13:30:49.011Z,19.17
2022-10-19T13:33:25.667Z,19.10
2022-10-19T13:35:59.107Z,19.11
2022-10-19T13:41:25.287Z,19.03
2022-10-19T13:44:14.207Z,19.11
2022-10-19T13:47:29.090Z,19.17
2022-10-19T13:50:30.632Z,19.10
2022-10-19T13:53:11.681Z,19.10
2022-10-19T13:56:01.889Z,19.12
2022-10-19T13:58:41.464Z,19.04
2022-10-19T14:01:38.470Z,19.08
2022-10-19T14:04:21.591Z,19.06
2022-10-19T14:07:01.144Z,19.07
2022-10-19T14:09:43.879Z,19.05
2022-10-19T14:12:16.369Z,18.93
2022-10-19T14:14:45.353Z,19.00
2022-10-19T14:17:24.840Z,18.85
2022-10-19T14:19:55.284Z,18.77
2022-10-19T14:22:34.064Z,18.78
2022-10-19T14:25:17.681Z,18.71
2022-10-19T14:27:46.715Z,18.82
2022-10-19T14:30:29.571Z,18.82
2022-10-19T14:33:01.141Z,18.74
2022-10-19T14:35:36.201Z,18.75
2022-10-19T14:38:08.901Z,18.74
2022-10-19T14:40:41.175Z,18.62
2022-10-19T14:43:26.698Z,18.57
2022-10-19T14:46:06.984Z,18.66
2022-10-19T14:48:37.033Z,18.69
2022-10-19T14:51:29.885Z,18.55
2022-10-19T14:54:08.337Z,18.49
2022-10-19T14:56:44.979Z,18.43
2022-10-19T14:59:30.713Z,18.35
2022-10-19T15:02:01.060Z,18.18
2022-10-19T15:04:37.211Z,18.08
2022-10-19T15:07:16.866Z,18.01
2022-10-19T15:09:53.995Z,17.93
2022-10-19T15:12:27.271Z,17.85
2022-10-19T15:14:55.165Z,18.06
2022-10-19T15:17:30.959Z,17.85
2022-10-19T15:20:00.346Z,17.77
2022-10-19T15:22:39.130Z,17.67
2022-10-19T15:25:13.492Z,17.60
2022-10-19T15:27:44.708Z,17.55
2022-10-19T15:30:18.125Z,17.57
2022-10-19T15:33:09.926Z,17.54
2022-10-19T15:35:44.066Z,17.48
2022-10-19T15:38:14.342Z,17.48
2022-10-19T15:40:45.839Z,17.50
2022-10-19T15:43:36.036Z,17.47
2022-10-19T15:46:25.934Z,17.76
2022-10-19T15:48:55.730Z,17.53
2022-10-19T15:51:23.853Z,17.42
2022-10-19T15:53:53.278Z,17.32
2022-10-19T15:56:22.557Z,17.31
2022-10-19T15:58:57.692Z,17.20
2022-10-19T16:01:30.722Z,17.14
2022-10-19T16:03:59.285Z,17.03
2022-10-19T16:06:30.402Z,17.00
2022-10-19T16:08:58.394Z,16.93
2022-10-19T16:11:26.973Z,16.96
2022-10-19T16:13:54.665Z,17.04
2022-10-19T16:16:25.387Z,17.03
2022-10-19T16:18:56.996Z,17.07
2022-10-19T16:21:33.358Z,17.06
2022-10-19T16:24:01.592Z,17.04
2022-10-19T16:26:29.575Z,17.01
2022-10-19T16:28:57.121Z,16.95
2022-10-19T16:31:25.205Z,16.75
2022-10-19T16:33:53.008Z,16.71
2022-10-19T16:36:29.513Z,16.78
2022-10-19T16:39:02.641Z,16.60
2022-10-19T16:41:33.596Z,16.56
2022-10-19T16:44:04.894Z,16.40
2022-10-19T16:46:33.381Z,16.35
2022-10-19T16:49:04.126Z,16.26
2022-10-19T16:51:40.087Z,16.14
2022-10-19T16:54:10.433Z,16.10
2022-10-19T16:56:43.225Z,16.01
2022-10-19T16:59:12.750Z,15.90
2022-10-19T17:01:41.466Z,15.82
2022-10-19T17:04:08.970Z,15.81
2022-10-19T17:06:36.750Z,15.75
2022-10-19T17:11:55.888Z,15.60
2022-10-19T17:14:23.227Z,15.46
2022-10-19T17:16:51.117Z,15.46
2022-10-19T17:19:18.654Z,15.34
2022-10-19T17:21:47.005Z,15.27
2022-10-19T17:24:21.955Z,15.15
2022-10-19T17:26:52.023Z,15.02
2022-10-19T17:29:20.855Z,15.49
2022-10-19T17:31:49.507Z,15.36
2022-10-19T17:34:17.780Z,15.16
2022-10-19T17:36:48.172Z,15.14
2022-10-19T17:39:25.552Z,15.09
2022-10-19T17:41:58.189Z,15.00
2022-10-19T17:44:28.752Z,14.97
2022-10-19T17:46:56.067Z,14.98
2022-10-19T17:49:32.384Z,14.93
2022-10-19T17:51:59.766Z,14.84
2022-10-19T17:54:27.926Z,14.83
2022-10-19T17:56:55.841Z,14.74
2022-10-19T17:59:34.771Z,14.71
2022-10-19T18:02:10.283Z,14.62
2022-10-19T18:04:40.934Z,14.64
2022-10-19T18:07:08.301Z,14.55
2022-10-19T18:09:36.105Z,14.58
2022-10-19T18:12:04.885Z,14.59
2022-10-19T18:14:34.796Z,14.64
2022-10-19T18:17:02.341Z,14.56
2022-10-19T18:19:29.884Z,14.50
2022-10-19T18:21:57.223Z,14.38
2022-10-19T18:24:24.641Z,14.43
2022-10-19T18:26:55.170Z,14.35
2022-10-19T18:29:25.031Z,14.33
2022-10-19T18:31:53.195Z,14.33
2022-10-19T18:34:23.634Z,14.42
2022-10-19T18:36:52.127Z,14.39
2022-10-19T18:39:20.177Z,14.17
2022-10-19T18:41:51.040Z,14.15
2022-10-19T18:44:23.533Z,14.09
2022-10-19T18:46:54.353Z,14.09
2022-10-19T18:49:23.125Z,13.98
2022-10-19T18:51:55.413Z,14.00
2022-10-19T18:54:25.268Z,13.95
2022-10-19T18:56:52.758Z,13.92
2022-10-19T18:59:20.791Z,13.92
2022-10-19T19:01:49.012Z,13.89
2022-10-19T19:04:16.533Z,13.87
2022-10-19T19:06:46.607Z,13.93
2022-10-19T19:09:14.254Z,13.91
2022-10-19T19:11:50.927Z,13.76
2022-10-19T19:14:19.157Z,13.68
2022-10-19T19:16:49.370Z,13.67
2022-10-19T19:19:18.582Z,13.64
2022-10-19T19:21:46.470Z,13.66
2022-10-19T19:24:20.673Z,13.72
2022-10-19T19:26:52.838Z,13.72
2022-10-19T19:29:21.708Z,13.57
2022-10-19T19:31:49.714Z,13.47
2022-10-19T19:34:17.955Z,13.49
2022-10-19T19:36:45.568Z,13.54
2022-10-19T19:39:15.000Z,13.64
2022-10-19T19:41:43.416Z,13.73
2022-10-19T19:44:11.030Z,13.87
2022-10-19T19:46:38.794Z,13.84
2022-10-19T19:49:06.346Z,13.80
2022-10-19T19:51:34.292Z,13.80
2022-10-19T19:54:01.861Z,13.81
2022-10-19T19:56:29.332Z,13.82
2022-10-19T19:59:00.593Z,13.74
2022-10-19T20:01:31.311Z,13.73
2022-10-19T20:04:00.181Z,13.69
2022-10-19T20:06:27.948Z,13.67
2022-10-19T20:08:56.468Z,13.60
2022-10-19T20:11:26.245Z,13.60
2022-10-19T20:13:54.219Z,13.53
2022-10-19T20:16:28.209Z,13.55
2022-10-19T20:19:10.516Z,13.42
2022-10-19T20:21:38.559Z,13.41
2022-10-19T20:24:06.989Z,13.25
2022-10-19T20:26:36.989Z,13.23
2022-10-19T20:29:05.539Z,13.21
2022-10-19T20:31:33.037Z,13.20
2022-10-19T20:34:00.570Z,13.18
2022-10-19T20:36:30.635Z,13.16
2022-10-19T20:39:05.416Z,13.07
2022-10-19T20:41:33.534Z,12.82
2022-10-19T20:44:01.155Z,12.70
2022-10-19T20:46:30.129Z,12.69
2022-10-19T20:48:59.953Z,12.65
2022-10-19T20:51:33.068Z,12.73
2022-10-19T20:54:05.903Z,12.67
2022-10-19T20:56:36.154Z,12.70
2022-10-19T20:59:07.415Z,12.79
2022-10-19T21:01:37.879Z,12.55
2022-10-19T21:04:07.686Z,12.60
2022-10-19T21:06:39.074Z,12.55
2022-10-19T21:09:06.701Z,12.61
2022-10-19T21:11:37.290Z,12.64
2022-10-19T21:14:07.757Z,12.47
2022-10-19T21:16:35.096Z,12.19
2022-10-19T21:19:04.372Z,12.33
2022-10-19T21:21:41.158Z,12.40
2022-10-19T21:24:13.161Z,12.52
2022-10-19T21:26:40.712Z,12.37
2022-10-19T21:29:09.883Z,12.43
2022-10-19T21:31:42.178Z,12.32
2022-10-19T21:34:19.712Z,12.31
2022-10-19T21:36:48.355Z,11.96
2022-10-19T21:39:16.509Z,11.96
2022-10-19T21:41:44.580Z,12.01
2022-10-19T21:44:15.187Z,12.07
2022-10-19T21:46:42.770Z,12.12
2022-10-19T21:49:13.555Z,12.03
2022-10-19T21:51:43.211Z,11.89
2022-10-19T21:54:16.886Z,11.91
2022-10-19T21:56:45.071Z,11.94
2022-10-19T21:59:13.497Z,11.64
2022-10-19T22:01:41.859Z,11.59
2022-10-19T22:04:14.045Z,11.56
2022-10-19T22:06:42.376Z,11.55
2022-10-19T22:09:14.126Z,11.52
2022-10-19T22:11:41.613Z,11.49
2022-10-19T22:14:11.883Z,11.42
2022-10-19T22:16:40.506Z,11.47
2022-10-19T22:19:07.974Z,11.46
2022-10-19T22:21:35.704Z,11.44
2022-10-19T22:24:10.114Z,11.43
2022-10-19T22:26:41.281Z,11.49
2022-10-19T22:29:09.055Z,11.58
2022-10-19T22:31:42.818Z,11.32
2022-10-19T22:34:14.053Z,11.27
2022-10-19T22:36:41.549Z,11.29
2022-10-19T22:39:09.533Z,11.37
2022-10-19T22:41:40.127Z,11.23
2022-10-19T22:44:07.684Z,11.22
2022-10-19T22:46:35.231Z,11.08
2022-10-19T22:49:02.690Z,11.05
2022-10-19T22:51:30.207Z,11.05
2022-10-19T22:53:57.500Z,11.17
2022-10-19T22:56:24.880Z,11.19
2022-10-19T22:58:52.423Z,11.10
2022-10-19T23:01:19.987Z,11.06
2022-10-19T23:03:47.410Z,11.19
2022-10-19T23:06:15.799Z,11.00
2022-10-19T23:08:44.318Z,10.94
2022-10-19T23:11:12.367Z,11.03
2022-10-19T23:13:40.871Z,11.03
2022-10-19T23:16:10.926Z,10.92
2022-10-19T23:18:40.361Z,10.91
2022-10-19T23:21:13.055Z,10.92
2022-10-19T23:23:43.774Z,10.99
2022-10-19T23:26:14.098Z,11.05
2022-10-19T23:28:48.808Z,10.98
2022-10-19T23:31:22.190Z,10.99
2022-10-19T23:33:50.074Z,10.79
2022-10-19T23:36:21.136Z,10.72
2022-10-19T23:38:50.041Z,10.77
2022-10-19T23:41:18.580Z,10.84
2022-10-19T23:43:46.470Z,10.85
2022-10-19T23:46:14.050Z,10.70
2022-10-19T23:48:41.731Z,10.60
2022-10-19T23:51:17.292Z,10.52
2022-10-19T23:53:46.871Z,10.45
2022-10-19T23:56:23.045Z,10.45
2022-10-19T23:58:51.391Z,10.39
